sensor_id;sensor_type;location;lat;lon;timestamp;temperature;humidity
43862;DHT22;29510;52.140;5.034;2022-08-19T00:04:35;17.90;99.90
43862;DHT22;29510;52.140;5.034;2022-08-19T00:14:37;17.90;99.90
43862;DHT22;29510;52.140;5.034;2022-08-19T00:24:38;17.90;99.90
43862;DHT22;29510;52.140;5.034;2022-08-19T00:34:41;17.80;99.90
43862;DHT22;29510;52.140;5.034;2022-08-19T00:44:42;17.70;99.90
43862;DHT22;29510;52.140;5.034;2022-08-19T00:54:44;17.60;99.90
43862;DHT22;29510;52.140;5.034;2022-08-19T01:04:47;17.60;99.90
43862;DHT22;29510;52.140;5.034;2022-08-19T01:14:49;17.50;99.90
43862;DHT22;29510;52.140;5.034;2022-08-19T01:24:51;17.50;99.90
43862;DHT22;29510;52.140;5.034;2022-08-19T01:34:52;17.40;99.90
43862;DHT22;29510;52.140;5.034;2022-08-19T01:44:53;17.40;99.90
43862;DHT22;29510;52.140;5.034;2022-08-19T01:54:54;17.40;99.90
43862;DHT22;29510;52.140;5.034;2022-08-19T02:04:56;17.30;99.90
43862;DHT22;29510;52.140;5.034;2022-08-19T02:14:58;17.30;99.90
43862;DHT22;29510;52.140;5.034;2022-08-19T02:24:59;17.30;99.90
43862;DHT22;29510;52.140;5.034;2022-08-19T02:35:00;17.20;99.90
43862;DHT22;29510;52.140;5.034;2022-08-19T02:45:02;17.10;99.90
43862;DHT22;29510;52.140;5.034;2022-08-19T02:55:04;17.00;99.90
43862;DHT22;29510;52.140;5.034;2022-08-19T03:05:07;17.00;99.90
43862;DHT22;29510;52.140;5.034;2022-08-19T03:15:08;16.90;99.90
43862;DHT22;29510;52.140;5.034;2022-08-19T03:25:09;16.80;99.90
43862;DHT22;29510;52.140;5.034;2022-08-19T03:35:12;16.80;99.90
43862;DHT22;29510;52.140;5.034;2022-08-19T03:45:13;16.80;99.90
43862;DHT22;29510;52.140;5.034;2022-08-19T03:55:16;16.80;99.90
43862;DHT22;29510;52.140;5.034;2022-08-19T04:05:17;16.80;99.90
43862;DHT22;29510;52.140;5.034;2022-08-19T04:15:18;16.80;99.90
43862;DHT22;29510;52.140;5.034;2022-08-19T04:25:20;16.80;99.90
43862;DHT22;29510;52.140;5.034;2022-08-19T04:35:21;16.90;99.90
43862;DHT22;29510;52.140;5.034;2022-08-19T04:45:22;17.10;99.90
43862;DHT22;29510;52.140;5.034;2022-08-19T04:55:23;17.40;99.90
43862;DHT22;29510;52.140;5.034;2022-08-19T05:05:27;17.30;99.90
43862;DHT22;29510;52.140;5.034;2022-08-19T05:15:28;17.40;99.90
43862;DHT22;29510;52.140;5.034;2022-08-19T05:25:29;17.40;99.90
43862;DHT22;29510;52.140;5.034;2022-08-19T05:35:30;17.70;99.90
43862;DHT22;29510;52.140;5.034;2022-08-19T05:45:32;17.80;99.90
43862;DHT22;29510;52.140;5.034;2022-08-19T05:55:34;17.80;99.90
43862;DHT22;29510;52.140;5.034;2022-08-19T06:05:35;17.90;99.90
43862;DHT22;29510;52.140;5.034;2022-08-19T06:15:36;17.90;99.90
43862;DHT22;29510;52.140;5.034;2022-08-19T06:25:39;17.90;99.90
43862;DHT22;29510;52.140;5.034;2022-08-19T06:35:41;18.10;99.90
43862;DHT22;29510;52.140;5.034;2022-08-19T06:45:42;18.20;99.90
43862;DHT22;29510;52.140;5.034;2022-08-19T06:55:43;18.30;99.90
43862;DHT22;29510;52.140;5.034;2022-08-19T07:05:44;18.60;99.90
43862;DHT22;29510;52.140;5.034;2022-08-19T07:15:45;18.70;99.90
43862;DHT22;29510;52.140;5.034;2022-08-19T07:25:47;18.80;99.90
43862;DHT22;29510;52.140;5.034;2022-08-19T07:35:48;18.90;99.90
43862;DHT22;29510;52.140;5.034;2022-08-19T07:45:52;19.00;99.90
43862;DHT22;29510;52.140;5.034;2022-08-19T07:55:53;19.10;99.90
43862;DHT22;29510;52.140;5.034;2022-08-19T08:05:55;19.40;99.90
43862;DHT22;29510;52.140;5.034;2022-08-19T08:16:14;19.60;99.90
43862;DHT22;29510;52.140;5.034;2022-08-19T08:26:15;19.90;99.90
43862;DHT22;29510;52.140;5.034;2022-08-19T08:36:17;20.20;99.90
43862;DHT22;29510;52.140;5.034;2022-08-19T08:46:26;20.50;99.90
43862;DHT22;29510;52.140;5.034;2022-08-19T08:56:28;20.60;99.90
43862;DHT22;29510;52.140;5.034;2022-08-19T09:17:09;21.20;99.90
43862;DHT22;29510;52.140;5.034;2022-08-19T09:27:10;21.30;99.90
43862;DHT22;29510;52.140;5.034;2022-08-19T09:37:13;21.60;99.90
43862;DHT22;29510;52.140;5.034;2022-08-19T09:47:14;22.40;99.90
43862;DHT22;29510;52.140;5.034;2022-08-19T09:57:17;22.30;99.90
43862;DHT22;29510;52.140;5.034;2022-08-19T10:07:18;22.60;99.90
43862;DHT22;29510;52.140;5.034;2022-08-19T10:17:20;23.50;99.90
43862;DHT22;29510;52.140;5.034;2022-08-19T10:27:21;23.90;99.90
43862;DHT22;29510;52.140;5.034;2022-08-19T10:37:22;24.40;99.90
43862;DHT22;29510;52.140;5.034;2022-08-19T10:47:23;24.50;99.90
43862;DHT22;29510;52.140;5.034;2022-08-19T10:57:24;24.40;99.90
43862;DHT22;29510;52.140;5.034;2022-08-19T11:07:29;23.90;99.90
43862;DHT22;29510;52.140;5.034;2022-08-19T11:17:31;23.60;99.90
43862;DHT22;29510;52.140;5.034;2022-08-19T11:27:33;23.30;99.90
43862;DHT22;29510;52.140;5.034;2022-08-19T11:37:34;22.80;99.90
43862;DHT22;29510;52.140;5.034;2022-08-19T11:47:37;21.30;99.90
43862;DHT22;29510;52.140;5.034;2022-08-19T11:57:39;20.80;99.90
43862;DHT22;29510;52.140;5.034;2022-08-19T12:07:41;20.90;99.90
43862;DHT22;29510;52.140;5.034;2022-08-19T12:17:44;21.50;99.90
43862;DHT22;29510;52.140;5.034;2022-08-19T12:27:45;21.60;99.90
43862;DHT22;29510;52.140;5.034;2022-08-19T12:37:47;21.60;99.90
43862;DHT22;29510;52.140;5.034;2022-08-19T12:47:48;21.20;99.90
43862;DHT22;29510;52.140;5.034;2022-08-19T12:57:50;21.10;99.90
43862;DHT22;29510;52.140;5.034;2022-08-19T13:07:53;21.30;99.90
43862;DHT22;29510;52.140;5.034;2022-08-19T13:17:57;21.80;99.90
43862;DHT22;29510;52.140;5.034;2022-08-19T13:27:59;22.10;99.90
43862;DHT22;29510;52.140;5.034;2022-08-19T13:38:00;22.40;99.90
43862;DHT22;29510;52.140;5.034;2022-08-19T13:48:08;22.50;99.90
43862;DHT22;29510;52.140;5.034;2022-08-19T13:58:13;22.60;99.90
43862;DHT22;29510;52.140;5.034;2022-08-19T14:08:14;22.80;99.90
43862;DHT22;29510;52.140;5.034;2022-08-19T14:18:17;22.70;99.90
43862;DHT22;29510;52.140;5.034;2022-08-19T14:28:18;22.40;99.90
43862;DHT22;29510;52.140;5.034;2022-08-19T14:38:20;22.50;99.90
43862;DHT22;29510;52.140;5.034;2022-08-19T14:48:21;22.60;99.90
43862;DHT22;29510;52.140;5.034;2022-08-19T14:58:22;23.70;99.90
43862;DHT22;29510;52.140;5.034;2022-08-19T15:08:23;23.70;99.90
43862;DHT22;29510;52.140;5.034;2022-08-19T15:18:25;23.20;99.90
43862;DHT22;29510;52.140;5.034;2022-08-19T15:28:26;22.90;99.90
43862;DHT22;29510;52.140;5.034;2022-08-19T15:38:27;22.50;99.90
43862;DHT22;29510;52.140;5.034;2022-08-19T15:48:28;21.80;99.90
43862;DHT22;29510;52.140;5.034;2022-08-19T15:58:29;21.30;99.90
43862;DHT22;29510;52.140;5.034;2022-08-19T16:08:49;21.30;99.90
43862;DHT22;29510;52.140;5.034;2022-08-19T16:18:50;21.10;99.90
43862;DHT22;29510;52.140;5.034;2022-08-19T16:28:53;21.20;99.90
43862;DHT22;29510;52.140;5.034;2022-08-19T16:38:54;21.20;99.90
43862;DHT22;29510;52.140;5.034;2022-08-19T16:48:55;21.30;99.90
43862;DHT22;29510;52.140;5.034;2022-08-19T16:58:56;21.10;99.90
43862;DHT22;29510;52.140;5.034;2022-08-19T17:09:00;21.00;99.90
43862;DHT22;29510;52.140;5.034;2022-08-19T17:19:04;21.00;99.90
43862;DHT22;29510;52.140;5.034;2022-08-19T17:29:05;21.10;99.90
43862;DHT22;29510;52.140;5.034;2022-08-19T17:39:07;21.10;99.90
43862;DHT22;29510;52.140;5.034;2022-08-19T17:49:08;21.00;99.90
43862;DHT22;29510;52.140;5.034;2022-08-19T17:59:09;20.90;99.90
43862;DHT22;29510;52.140;5.034;2022-08-19T18:09:10;20.90;99.90
43862;DHT22;29510;52.140;5.034;2022-08-19T18:19:11;20.90;99.90
43862;DHT22;29510;52.140;5.034;2022-08-19T18:29:14;20.90;99.90
43862;DHT22;29510;52.140;5.034;2022-08-19T18:39:15;20.80;99.90
43862;DHT22;29510;52.140;5.034;2022-08-19T18:49:35;20.70;99.90
43862;DHT22;29510;52.140;5.034;2022-08-19T18:59:36;20.60;99.90
43862;DHT22;29510;52.140;5.034;2022-08-19T19:09:37;20.50;99.90
43862;DHT22;29510;52.140;5.034;2022-08-19T19:19:40;20.40;99.90
43862;DHT22;29510;52.140;5.034;2022-08-19T19:29:42;20.30;99.90
43862;DHT22;29510;52.140;5.034;2022-08-19T19:39:44;20.20;99.90
43862;DHT22;29510;52.140;5.034;2022-08-19T19:49:47;20.10;99.90
43862;DHT22;29510;52.140;5.034;2022-08-19T19:59:52;20.10;99.90
43862;DHT22;29510;52.140;5.034;2022-08-19T20:09:53;20.10;99.90
43862;DHT22;29510;52.140;5.034;2022-08-19T20:19:54;20.00;99.90
43862;DHT22;29510;52.140;5.034;2022-08-19T20:29:57;19.90;99.90
43862;DHT22;29510;52.140;5.034;2022-08-19T20:40:01;19.90;99.90
43862;DHT22;29510;52.140;5.034;2022-08-19T20:50:04;19.90;99.90
43862;DHT22;29510;52.140;5.034;2022-08-19T21:00:07;19.90;99.90
43862;DHT22;29510;52.140;5.034;2022-08-19T21:10:12;19.90;99.90
43862;DHT22;29510;52.140;5.034;2022-08-19T21:20:14;19.80;99.90
43862;DHT22;29510;52.140;5.034;2022-08-19T21:30:17;19.80;99.90
43862;DHT22;29510;52.140;5.034;2022-08-19T21:40:19;19.80;99.90
43862;DHT22;29510;52.140;5.034;2022-08-19T21:50:21;19.90;99.90
43862;DHT22;29510;52.140;5.034;2022-08-19T22:00:22;19.80;99.90
43862;DHT22;29510;52.140;5.034;2022-08-19T22:10:26;19.70;99.90
43862;DHT22;29510;52.140;5.034;2022-08-19T22:20:30;19.70;99.90
43862;DHT22;29510;52.140;5.034;2022-08-19T22:30:32;19.60;99.90
43862;DHT22;29510;52.140;5.034;2022-08-19T22:40:37;19.60;99.90
43862;DHT22;29510;52.140;5.034;2022-08-19T22:50:41;19.50;99.90
43862;DHT22;29510;52.140;5.034;2022-08-19T23:00:42;19.50;99.90
43862;DHT22;29510;52.140;5.034;2022-08-19T23:10:43;19.50;99.90
43862;DHT22;29510;52.140;5.034;2022-08-19T23:20:44;19.50;99.90
43862;DHT22;29510;52.140;5.034;2022-08-19T23:30:47;19.60;99.90
43862;DHT22;29510;52.140;5.034;2022-08-19T23:40:53;19.60;99.90
43862;DHT22;29510;52.140;5.034;2022-08-19T23:50:55;19.60;99.90
